Time;durP1;ratioP1;P1;durP2;ratioP2;P2;SDS_P1;SDS_P2;PMS_P1;PMS_P2;Temp;Humidity;BMP_temperature;BMP_pressure;BME280_temperature;BME280_humidity;BME280_pressure;Samples;Min_cycle;Max_cycle;Signal;HPM_P1;HPM_P2
2023/05/09 00:00:29;;;;;;;11.37;10.27;;;20.20;84.10;;;;;;5094919;28;20295;-76
2023/05/09 00:02:56;;;;;;;11.77;10.57;;;20.20;84.20;;;;;;5094693;28;20200;-77
2023/05/09 00:05:23;;;;;;;11.03;9.93;;;20.10;84.20;;;;;;5094101;28;20295;-74
2023/05/09 00:07:52;;;;;;;9.70;8.80;;;20.10;84.10;;;;;;5090179;28;20588;-75
2023/05/09 00:10:18;;;;;;;11.13;10.13;;;20.10;84.10;;;;;;5085321;28;20220;-75
2023/05/09 00:12:46;;;;;;;10.77;9.83;;;20.10;84.10;;;;;;5090145;28;20228;-76
2023/05/09 00:15:12;;;;;;;10.23;9.37;;;20.10;84.10;;;;;;5073197;28;20205;-76
2023/05/09 00:17:40;;;;;;;11.57;10.47;;;20.10;84.00;;;;;;5073769;28;20201;-76
2023/05/09 00:20:11;;;;;;;10.83;9.73;;;20.10;84.00;;;;;;5088857;28;20544;-76
2023/05/09 00:22:39;;;;;;;12.20;10.30;;;20.00;84.10;;;;;;5090399;28;20189;-77
2023/05/09 00:25:09;;;;;;;10.80;9.83;;;20.00;84.10;;;;;;5092890;28;20259;-75
2023/05/09 00:27:36;;;;;;;11.13;10.00;;;20.00;84.10;;;;;;5079214;28;20208;-75
2023/05/09 00:30:04;;;;;;;10.30;9.20;;;20.10;84.20;;;;;;5088153;28;20233;-76
2023/05/09 00:32:32;;;;;;;12.23;9.93;;;20.00;84.40;;;;;;5077221;28;20245;-75
2023/05/09 00:34:59;;;;;;;10.80;9.80;;;20.00;84.40;;;;;;5074952;28;20205;-75
2023/05/09 00:37:26;;;;;;;10.80;9.07;;;20.00;85.20;;;;;;5088300;28;20220;-75
2023/05/09 00:39:53;;;;;;;10.93;10.03;;;20.00;84.60;;;;;;5064390;28;20198;-76
2023/05/09 00:42:21;;;;;;;10.90;9.23;;;20.00;84.70;;;;;;5066148;28;20887;-76
2023/05/09 00:44:48;;;;;;;10.03;9.03;;;20.00;84.90;;;;;;5073685;28;20209;-75
2023/05/09 00:47:15;;;;;;;9.27;8.33;;;20.00;84.80;;;;;;5077659;28;20235;-75
2023/05/09 00:49:41;;;;;;;9.17;8.37;;;20.00;84.70;;;;;;5038736;28;20216;-76
2023/05/09 00:52:09;;;;;;;9.77;8.87;;;20.00;84.80;;;;;;5087652;28;20671;-76
2023/05/09 00:54:36;;;;;;;9.10;8.20;;;20.00;84.90;;;;;;5078421;28;20208;-75
2023/05/09 00:57:03;;;;;;;9.03;8.23;;;20.10;85.10;;;;;;5089867;28;20204;-75
2023/05/09 00:59:32;;;;;;;8.93;8.03;;;20.00;85.00;;;;;;5093323;28;20223;-76
2023/05/09 01:01:58;;;;;;;9.20;8.00;;;20.10;85.90;;;;;;5092017;28;20200;-75
2023/05/09 01:04:26;;;;;;;10.40;9.40;;;20.10;85.30;;;;;;5093644;28;20315;-75
2023/05/09 01:07:00;;;;;;;9.23;8.40;;;20.10;85.30;;;;;;5090236;28;20565;-75
2023/05/09 01:09:35;;;;;;;9.63;8.50;;;20.10;85.50;;;;;;5079584;28;20227;-74
2023/05/09 01:12:11;;;;;;;8.83;7.93;;;20.10;85.70;;;;;;5091758;28;20287;-75
2023/05/09 01:14:44;;;;;;;10.27;9.17;;;20.10;85.60;;;;;;5090544;28;20225;-77
2023/05/09 01:17:16;;;;;;;10.10;8.73;;;20.10;85.50;;;;;;5093175;28;20594;-76
2023/05/09 01:19:57;;;;;;;10.27;9.37;;;20.10;86.30;;;;;;5092543;28;20189;-76
2023/05/09 01:22:29;;;;;;;10.20;9.30;;;20.10;85.80;;;;;;5058666;28;20225;-76
2023/05/09 01:25:15;;;;;;;12.67;10.13;;;20.10;85.80;;;;;;5077137;28;20201;-76
2023/05/09 01:27:53;;;;;;;11.03;9.97;;;20.10;86.00;;;;;;5089475;28;20339;-76
2023/05/09 01:30:22;;;;;;;11.13;10.10;;;20.00;85.90;;;;;;5075819;28;20227;-76
2023/05/09 01:32:51;;;;;;;10.77;9.67;;;20.10;86.00;;;;;;5076195;28;20224;-75
2023/05/09 01:35:21;;;;;;;12.70;11.50;;;20.00;86.00;;;;;;5074429;28;20197;-76
2023/05/09 01:37:50;;;;;;;11.23;10.17;;;20.10;86.20;;;;;;5076998;28;20204;-74
2023/05/09 01:40:20;;;;;;;10.90;9.80;;;20.10;86.40;;;;;;5075979;28;20212;-76
2023/05/09 01:42:52;;;;;;;11.33;10.23;;;20.10;86.30;;;;;;5090400;28;20273;-76
2023/05/09 01:45:22;;;;;;;12.30;11.10;;;20.00;86.20;;;;;;5087044;28;20224;-76
2023/05/09 01:47:50;;;;;;;11.93;9.73;;;20.00;86.10;;;;;;5076896;28;20205;-75
2023/05/09 01:50:19;;;;;;;13.10;11.80;;;20.00;86.40;;;;;;5094554;28;20680;-76
2023/05/09 01:52:49;;;;;;;10.63;9.70;;;20.00;86.40;;;;;;5087969;28;20207;-76
2023/05/09 01:55:18;;;;;;;10.70;9.70;;;20.00;86.80;;;;;;5080786;28;20224;-76
2023/05/09 01:57:46;;;;;;;11.37;10.37;;;20.00;86.70;;;;;;5075784;28;20232;-75
2023/05/09 02:00:15;;;;;;;11.47;10.27;;;20.00;86.70;;;;;;5089734;28;20671;-76
2023/05/09 02:02:43;;;;;;;10.53;9.43;;;20.00;86.70;;;;;;5082514;28;20255;-76
2023/05/09 02:05:11;;;;;;;10.90;9.80;;;20.00;86.70;;;;;;5076940;28;20236;-76
2023/05/09 02:07:40;;;;;;;10.30;9.30;;;20.00;86.80;;;;;;5079798;28;20229;-76
2023/05/09 02:10:11;;;;;;;11.50;10.47;;;20.10;86.90;;;;;;5091202;28;20221;-76
2023/05/09 02:12:38;;;;;;;12.07;10.90;;;20.10;87.10;;;;;;5075246;28;20236;-75
2023/05/09 02:15:06;;;;;;;11.47;10.30;;;20.10;87.00;;;;;;5091706;28;20201;-75
2023/05/09 02:17:33;;;;;;;10.13;9.23;;;20.10;87.00;;;;;;5095335;28;20581;-76
2023/05/09 02:20:01;;;;;;;9.60;8.43;;;20.10;86.90;;;;;;5096008;28;20623;-76
2023/05/09 02:22:28;;;;;;;10.03;9.03;;;20.10;87.10;;;;;;5096115;28;20197;-76
2023/05/09 02:24:55;;;;;;;11.37;10.20;;;20.10;87.10;;;;;;5086485;28;20675;-76
2023/05/09 02:27:22;;;;;;;11.90;10.80;;;20.10;87.00;;;;;;5088089;28;20229;-75
2023/05/09 02:29:53;;;;;;;9.97;9.07;;;20.10;86.90;;;;;;5073046;28;20231;-75
2023/05/09 02:32:23;;;;;;;10.13;9.13;;;20.10;87.00;;;;;;5094562;28;20205;-75
2023/05/09 02:34:52;;;;;;;9.77;8.87;;;20.10;87.10;;;;;;5095122;28;20224;-75
2023/05/09 02:37:21;;;;;;;9.10;8.20;;;20.20;87.10;;;;;;5089252;28;20293;-76
2023/05/09 02:39:48;;;;;;;10.00;9.10;;;20.20;87.10;;;;;;5090542;28;20232;-75
2023/05/09 02:42:23;;;;;;;10.37;9.37;;;20.20;87.00;;;;;;5094755;28;20283;-75
2023/05/09 02:44:50;;;;;;;11.43;10.30;;;20.20;87.20;;;;;;5080490;28;20673;-75
2023/05/09 02:47:17;;;;;;;11.23;10.00;;;20.20;87.00;;;;;;5091675;28;20193;-76
2023/05/09 02:49:44;;;;;;;9.93;9.00;;;20.10;87.10;;;;;;5085559;28;20212;-76
2023/05/09 02:52:11;;;;;;;10.27;9.23;;;20.10;87.30;;;;;;5095294;28;20220;-74
2023/05/09 02:54:39;;;;;;;10.57;9.57;;;20.10;87.30;;;;;;5083466;28;20197;-75
2023/05/09 02:57:06;;;;;;;8.67;7.80;;;20.10;87.40;;;;;;5084075;28;20224;-76
2023/05/09 02:59:33;;;;;;;10.30;9.40;;;20.00;87.50;;;;;;5095128;28;20246;-76
2023/05/09 03:02:00;;;;;;;11.50;8.73;;;20.00;87.60;;;;;;5075921;28;20193;-76
2023/05/09 03:04:27;;;;;;;8.77;8.03;;;20.10;88.40;;;;;;5083931;28;20205;-76
2023/05/09 03:06:54;;;;;;;7.97;7.20;;;20.10;87.60;;;;;;5080909;28;20884;-76
2023/05/09 03:09:21;;;;;;;9.37;8.40;;;20.10;87.50;;;;;;5081119;28;20292;-75
2023/05/09 03:11:50;;;;;;;8.77;7.97;;;20.10;87.30;;;;;;5075755;28;20220;-75
2023/05/09 03:14:17;;;;;;;9.83;8.60;;;20.20;87.50;;;;;;5086966;28;20220;-76
2023/05/09 03:16:44;;;;;;;9.00;7.60;;;20.10;87.40;;;;;;5082377;28;20216;-75
2023/05/09 03:19:10;;;;;;;9.07;8.17;;;20.20;87.60;;;;;;5089035;28;20224;-75
2023/05/09 03:21:38;;;;;;;8.77;7.97;;;20.20;87.20;;;;;;5075429;28;20203;-76
2023/05/09 03:24:06;;;;;;;8.57;7.77;;;20.20;87.20;;;;;;5081922;28;20667;-76
2023/05/09 03:26:34;;;;;;;9.40;8.40;;;20.20;87.10;;;;;;5078665;28;20303;-76
2023/05/09 03:29:03;;;;;;;9.10;8.20;;;20.20;87.00;;;;;;5080591;28;20193;-76
2023/05/09 03:31:30;;;;;;;8.83;7.77;;;20.20;87.10;;;;;;5075996;28;20232;-75
2023/05/09 03:33:57;;;;;;;8.77;7.93;;;20.20;87.00;;;;;;5087920;28;20231;-76
2023/05/09 03:36:25;;;;;;;9.63;8.73;;;20.20;86.90;;;;;;5093259;28;20211;-76
2023/05/09 03:38:52;;;;;;;7.60;6.90;;;20.10;86.70;;;;;;5095211;28;20200;-76
2023/05/09 03:41:19;;;;;;;9.47;8.57;;;20.10;86.90;;;;;;5094280;28;20196;-75
2023/05/09 03:43:46;;;;;;;9.70;8.70;;;20.10;87.00;;;;;;5086701;28;20200;-75
2023/05/09 03:46:14;;;;;;;8.63;7.83;;;20.10;86.80;;;;;;5090291;28;20207;-75
2023/05/09 03:48:41;;;;;;;9.67;8.57;;;20.10;86.80;;;;;;5090051;28;20750;-75
2023/05/09 03:51:08;;;;;;;8.87;8.07;;;20.10;86.90;;;;;;5087173;28;20216;-75
2023/05/09 03:53:35;;;;;;;8.70;7.80;;;20.10;86.70;;;;;;5070332;28;20192;-76
2023/05/09 03:56:01;;;;;;;8.40;7.67;;;20.20;87.00;;;;;;5077759;28;20673;-75
2023/05/09 03:58:28;;;;;;;7.90;7.20;;;20.20;87.00;;;;;;5081412;28;20303;-75
2023/05/09 04:00:56;;;;;;;8.20;7.40;;;20.20;86.90;;;;;;5091235;28;20232;-75
2023/05/09 04:03:24;;;;;;;7.80;7.10;;;20.20;86.90;;;;;;5094760;28;20200;-74
2023/05/09 04:05:51;;;;;;;8.47;7.77;;;20.20;86.70;;;;;;5093778;28;20204;-75
2023/05/09 04:08:18;;;;;;;9.33;8.53;;;20.20;86.80;;;;;;5058512;28;20657;-76
2023/05/09 04:10:45;;;;;;;8.90;7.80;;;20.20;86.50;;;;;;5086342;28;20223;-75
2023/05/09 04:13:11;;;;;;;8.80;7.97;;;20.20;86.40;;;;;;5093608;28;20284;-75
2023/05/09 04:15:38;;;;;;;7.70;7.07;;;20.20;86.40;;;;;;5087962;28;20662;-75
2023/05/09 04:18:06;;;;;;;8.37;7.60;;;20.20;86.60;;;;;;5093732;28;20661;-76
2023/05/09 04:20:34;;;;;;;8.73;7.93;;;20.20;86.60;;;;;;5088367;28;20649;-75
2023/05/09 04:23:02;;;;;;;8.67;7.37;;;20.20;86.50;;;;;;5092877;28;20228;-75
2023/05/09 04:25:29;;;;;;;8.43;7.63;;;20.20;86.70;;;;;;5079014;28;20197;-76
2023/05/09 04:27:57;;;;;;;9.47;8.67;;;20.20;86.70;;;;;;5090261;28;20204;-73
2023/05/09 04:30:25;;;;;;;9.80;8.93;;;20.20;86.40;;;;;;5086319;28;20216;-73
2023/05/09 04:32:54;;;;;;;9.70;8.33;;;20.20;86.50;;;;;;5090102;28;20206;-75
2023/05/09 04:35:21;;;;;;;8.27;7.57;;;20.10;86.70;;;;;;5087316;28;20206;-75
2023/05/09 04:37:49;;;;;;;7.30;6.63;;;20.10;86.90;;;;;;5074785;28;20262;-75
2023/05/09 04:40:16;;;;;;;7.87;7.17;;;20.10;86.90;;;;;;5059508;28;20223;-75
2023/05/09 04:42:43;;;;;;;8.20;7.50;;;20.20;87.00;;;;;;5091645;28;20287;-75
2023/05/09 04:45:11;;;;;;;7.80;7.13;;;20.20;86.80;;;;;;5081382;28;20220;-74
2023/05/09 04:47:38;;;;;;;9.03;7.00;;;20.20;86.60;;;;;;5076216;28;20201;-74
2023/05/09 04:50:06;;;;;;;7.03;6.43;;;20.20;86.30;;;;;;5087563;28;20200;-75
2023/05/09 04:52:33;;;;;;;7.93;7.23;;;20.20;86.60;;;;;;5092751;28;20205;-74
2023/05/09 04:55:02;;;;;;;7.00;6.40;;;20.20;86.40;;;;;;5089424;28;20199;-75
2023/05/09 04:57:29;;;;;;;7.53;6.70;;;20.20;86.50;;;;;;5076020;28;20290;-74
2023/05/09 04:59:56;;;;;;;7.73;6.93;;;20.20;86.60;;;;;;5083031;28;20197;-75
2023/05/09 05:02:24;;;;;;;8.20;7.40;;;20.20;86.30;;;;;;5092821;28;20220;-75
2023/05/09 05:04:50;;;;;;;8.00;7.30;;;20.20;86.30;;;;;;5084944;28;20200;-75
2023/05/09 05:07:17;;;;;;;7.37;6.67;;;20.10;86.30;;;;;;5062629;28;20618;-74
2023/05/09 05:09:44;;;;;;;7.40;6.77;;;20.20;86.50;;;;;;5078125;28;20687;-74
2023/05/09 05:12:12;;;;;;;7.73;7.07;;;20.10;87.20;;;;;;5080120;28;20222;-76
2023/05/09 05:14:39;;;;;;;8.10;7.40;;;20.10;86.40;;;;;;5090211;28;20220;-75
2023/05/09 05:17:07;;;;;;;7.93;7.27;;;20.10;86.60;;;;;;5074110;28;20201;-74
2023/05/09 05:19:34;;;;;;;8.70;7.90;;;20.10;86.80;;;;;;5079656;28;20252;-77
2023/05/09 05:22:01;;;;;;;8.07;7.37;;;20.00;87.00;;;;;;5074300;28;20203;-77
2023/05/09 05:24:28;;;;;;;8.87;8.07;;;20.00;87.10;;;;;;5076577;28;20283;-76
2023/05/09 05:26:54;;;;;;;8.13;7.43;;;20.00;87.30;;;;;;5092366;28;20218;-73
2023/05/09 05:29:23;;;;;;;9.27;7.77;;;20.00;87.50;;;;;;5085553;28;20618;-75
2023/05/09 05:31:49;;;;;;;8.00;7.20;;;20.00;87.30;;;;;;5078747;28;20274;-73
2023/05/09 05:34:16;;;;;;;8.57;7.77;;;19.90;87.60;;;;;;5084492;28;20197;-74
2023/05/09 05:36:43;;;;;;;8.40;7.57;;;19.90;87.70;;;;;;5057450;28;20268;-73
2023/05/09 05:39:10;;;;;;;8.83;8.10;;;20.00;87.60;;;;;;5067092;28;20196;-73
2023/05/09 05:41:37;;;;;;;7.90;7.10;;;20.00;87.50;;;;;;5086461;28;20720;-74
2023/05/09 05:44:04;;;;;;;9.43;8.60;;;20.00;87.80;;;;;;5086620;28;20201;-74
2023/05/09 05:46:35;;;;;;;8.80;8.00;;;20.00;88.00;;;;;;5081726;28;20207;-74
2023/05/09 05:49:02;;;;;;;8.00;7.20;;;20.00;88.30;;;;;;5088524;28;20891;-73
2023/05/09 05:51:29;;;;;;;7.37;6.77;;;20.00;88.50;;;;;;5073243;28;20213;-74
2023/05/09 05:53:56;;;;;;;8.47;7.47;;;20.10;88.80;;;;;;5071830;28;20672;-75
2023/05/09 05:56:23;;;;;;;8.60;7.80;;;20.20;88.90;;;;;;5077210;28;20708;-74
2023/05/09 05:58:50;;;;;;;8.57;7.00;;;20.30;88.50;;;;;;5075270;28;20216;-74
2023/05/09 06:01:17;;;;;;;9.40;7.80;;;20.20;88.50;;;;;;5072341;28;20226;-74
2023/05/09 06:03:45;;;;;;;10.30;9.30;;;20.30;88.60;;;;;;5077165;28;20199;-74
2023/05/09 06:06:12;;;;;;;9.33;8.40;;;20.30;88.60;;;;;;5071295;28;20232;-73
2023/05/09 06:08:39;;;;;;;8.60;7.70;;;20.40;88.80;;;;;;5081845;28;20634;-74
2023/05/09 06:11:06;;;;;;;11.03;9.97;;;20.40;88.70;;;;;;5056363;28;20225;-73
2023/05/09 06:13:33;;;;;;;9.93;8.90;;;20.50;88.70;;;;;;5051066;28;20201;-74
2023/05/09 06:16:00;;;;;;;9.83;8.93;;;20.50;88.60;;;;;;5051214;28;20206;-74
2023/05/09 06:18:26;;;;;;;9.93;9.03;;;20.50;88.70;;;;;;5051084;28;20230;-74
2023/05/09 06:20:55;;;;;;;11.13;10.03;;;20.50;88.60;;;;;;5054871;28;20200;-74
2023/05/09 06:23:21;;;;;;;13.07;10.63;;;20.50;88.80;;;;;;5105124;28;20229;-74
2023/05/09 06:25:48;;;;;;;11.07;10.07;;;20.60;89.00;;;;;;5076326;28;20205;-74
2023/05/09 06:28:15;;;;;;;12.43;11.13;;;20.60;88.90;;;;;;5076029;28;20209;-74
2023/05/09 06:30:42;;;;;;;10.80;9.80;;;20.70;89.10;;;;;;5094116;28;20227;-74
2023/05/09 06:33:09;;;;;;;12.97;10.37;;;20.70;89.00;;;;;;5082351;28;20879;-74
2023/05/09 06:35:36;;;;;;;12.83;11.53;;;20.70;88.60;;;;;;5080976;28;20763;-74
2023/05/09 06:38:04;;;;;;;12.23;11.03;;;20.70;88.70;;;;;;5095312;28;20200;-75
2023/05/09 06:40:31;;;;;;;14.10;12.67;;;20.70;88.60;;;;;;5094775;28;20672;-75
2023/05/09 06:43:01;;;;;;;13.10;11.90;;;20.70;88.70;;;;;;5086825;28;20692;-73
2023/05/09 06:45:29;;;;;;;12.43;11.20;;;20.60;88.80;;;;;;5074150;28;20307;-74
2023/05/09 06:47:59;;;;;;;13.33;11.90;;;20.70;89.00;;;;;;5073805;28;20292;-74
2023/05/09 06:50:29;;;;;;;12.17;11.00;;;20.70;88.90;;;;;;5073722;28;20320;-74
2023/05/09 06:52:59;;;;;;;11.57;10.37;;;20.70;88.60;;;;;;5073816;28;20293;-74
2023/05/09 06:55:27;;;;;;;13.00;11.67;;;20.60;88.90;;;;;;5075676;28;20794;-76
2023/05/09 06:57:54;;;;;;;13.57;12.30;;;20.70;89.20;;;;;;5083849;28;20216;-74
2023/05/09 07:00:22;;;;;;;14.83;13.00;;;20.70;89.60;;;;;;5094228;28;20206;-74
2023/05/09 07:02:49;;;;;;;12.47;11.17;;;20.80;89.80;;;;;;5043751;28;20201;-73
2023/05/09 07:05:19;;;;;;;11.20;10.10;;;20.70;88.60;;;;;;5073875;28;20201;-75
2023/05/09 07:07:46;;;;;;;14.37;12.83;;;20.70;89.00;;;;;;5074200;28;20229;-75
2023/05/09 07:10:13;;;;;;;12.37;11.03;;;20.80;89.50;;;;;;5073996;28;20291;-73
2023/05/09 07:12:41;;;;;;;12.67;11.37;;;20.80;88.30;;;;;;5073749;28;20231;-75
2023/05/09 07:15:09;;;;;;;14.00;11.53;;;20.80;88.30;;;;;;5083941;28;20200;-73
2023/05/09 07:17:36;;;;;;;15.17;13.67;;;20.90;88.50;;;;;;5093202;28;20303;-74
2023/05/09 07:20:04;;;;;;;14.53;13.13;;;21.00;88.00;;;;;;5093453;28;20227;-75
2023/05/09 07:22:31;;;;;;;14.20;12.80;;;21.00;87.60;;;;;;5093529;28;20265;-74
2023/05/09 07:24:58;;;;;;;14.63;13.00;;;21.00;87.80;;;;;;5093184;28;20299;-75
2023/05/09 07:27:25;;;;;;;15.60;13.63;;;21.00;88.10;;;;;;5093337;28;20209;-74
2023/05/09 07:29:53;;;;;;;14.93;13.33;;;21.00;87.80;;;;;;5093260;28;20798;-74
2023/05/09 07:32:22;;;;;;;16.73;14.27;;;21.10;88.40;;;;;;5092829;28;20243;-75
2023/05/09 07:34:51;;;;;;;14.93;13.43;;;21.10;87.90;;;;;;5093466;28;20290;-75
2023/05/09 07:37:21;;;;;;;15.47;12.93;;;21.20;88.20;;;;;;5092901;28;20664;-74
2023/05/09 07:39:48;;;;;;;12.33;11.13;;;21.30;88.00;;;;;;5092597;28;20224;-75
2023/05/09 07:42:15;;;;;;;12.87;11.43;;;21.40;88.50;;;;;;5092984;28;20220;-74
2023/05/09 07:44:42;;;;;;;11.87;10.77;;;21.50;87.30;;;;;;5093166;28;20261;-75
2023/05/09 07:47:10;;;;;;;16.87;13.70;;;21.60;87.40;;;;;;5092400;28;20200;-75
2023/05/09 07:49:39;;;;;;;14.57;13.07;;;21.70;87.40;;;;;;5093025;28;20215;-75
2023/05/09 07:52:05;;;;;;;16.80;15.13;;;21.80;87.10;;;;;;5092553;28;20243;-75
2023/05/09 07:54:32;;;;;;;14.27;12.87;;;21.80;86.70;;;;;;5092700;28;20297;-74
2023/05/09 07:56:59;;;;;;;15.30;13.70;;;21.90;86.40;;;;;;5089184;28;20308;-75
2023/05/09 07:59:26;;;;;;;14.67;13.17;;;21.90;86.20;;;;;;5072571;28;20231;-74
2023/05/09 08:01:53;;;;;;;16.27;14.17;;;21.90;86.60;;;;;;5072079;28;20205;-75
2023/05/09 08:04:22;;;;;;;16.27;14.67;;;21.90;86.00;;;;;;5072298;28;20233;-74
2023/05/09 08:06:48;;;;;;;15.17;13.57;;;21.90;86.10;;;;;;5071956;28;21036;-74
2023/05/09 08:09:15;;;;;;;14.37;13.03;;;22.00;86.40;;;;;;5072292;28;20209;-74
2023/05/09 08:11:42;;;;;;;13.37;12.07;;;21.90;86.00;;;;;;5072113;28;20217;-75
2023/05/09 08:14:09;;;;;;;15.83;14.33;;;21.90;85.60;;;;;;5072189;28;20201;-74
2023/05/09 08:16:36;;;;;;;15.03;13.63;;;21.90;85.20;;;;;;5071682;28;20316;-75
2023/05/09 08:19:03;;;;;;;15.73;14.13;;;22.00;85.40;;;;;;5072067;28;20209;-75
2023/05/09 08:21:31;;;;;;;13.10;11.83;;;22.00;85.30;;;;;;5071967;28;20749;-75
2023/05/09 08:23:59;;;;;;;15.23;13.73;;;22.10;85.60;;;;;;5071851;28;20776;-74
2023/05/09 08:26:26;;;;;;;15.07;13.43;;;22.20;85.20;;;;;;5071796;28;20209;-74
2023/05/09 08:28:53;;;;;;;13.40;12.07;;;22.20;84.40;;;;;;5072040;28;20300;-75
2023/05/09 08:31:23;;;;;;;14.23;12.77;;;22.30;84.80;;;;;;5071746;28;20216;-73
2023/05/09 08:33:52;;;;;;;13.00;11.70;;;22.30;84.40;;;;;;5071272;28;20790;-75
2023/05/09 08:36:19;;;;;;;13.00;11.83;;;22.30;83.30;;;;;;5071638;28;20257;-74
2023/05/09 08:38:51;;;;;;;12.77;11.60;;;22.30;83.70;;;;;;5071912;28;20197;-74
2023/05/09 08:41:21;;;;;;;12.40;11.20;;;22.50;84.60;;;;;;5071792;28;20724;-75
2023/05/09 08:43:52;;;;;;;11.87;10.77;;;22.60;84.10;;;;;;5071574;28;20261;-74
2023/05/09 08:46:24;;;;;;;10.97;9.87;;;22.70;82.40;;;;;;5071258;28;20205;-75
2023/05/09 08:48:52;;;;;;;11.30;10.20;;;22.80;81.50;;;;;;5071295;28;20228;-75
2023/05/09 08:51:22;;;;;;;11.20;10.07;;;22.80;81.60;;;;;;5070857;28;20217;-75
2023/05/09 08:56:21;;;;;;;11.93;10.87;;;22.80;81.10;;;;;;5037667;28;20242;-76
2023/05/09 08:58:48;;;;;;;9.47;8.67;;;22.80;80.80;;;;;;5051166;28;20299;-75
2023/05/09 09:01:16;;;;;;;10.37;9.37;;;22.80;81.80;;;;;;5051427;28;20673;-75
2023/05/09 09:03:46;;;;;;;11.30;10.30;;;22.80;81.10;;;;;;5059815;28;20293;-75
2023/05/09 09:06:13;;;;;;;11.30;10.13;;;22.90;81.10;;;;;;5075165;28;20227;-75
2023/05/09 09:08:41;;;;;;;9.53;8.63;;;22.90;80.40;;;;;;5072723;28;20237;-75
2023/05/09 09:11:11;;;;;;;8.73;8.03;;;22.90;80.80;;;;;;5072672;28;20210;-75
2023/05/09 09:13:41;;;;;;;8.57;7.83;;;22.90;80.40;;;;;;5070098;28;20221;-75
2023/05/09 09:16:09;;;;;;;7.87;7.17;;;23.10;80.40;;;;;;5059733;28;20206;-74
2023/05/09 09:18:37;;;;;;;11.47;10.47;;;23.20;80.90;;;;;;5050091;28;20307;-75
2023/05/09 09:21:07;;;;;;;9.97;9.07;;;23.20;79.30;;;;;;5051313;28;20599;-74
2023/05/09 09:23:34;;;;;;;10.20;9.20;;;23.20;78.90;;;;;;5051052;28;20206;-74
2023/05/09 09:26:03;;;;;;;10.97;9.97;;;23.10;78.70;;;;;;5051116;28;20201;-75
2023/05/09 09:28:30;;;;;;;10.60;9.60;;;23.10;80.10;;;;;;5050902;28;20320;-75
2023/05/09 09:30:58;;;;;;;9.30;8.50;;;23.10;79.40;;;;;;5051163;28;20204;-76
2023/05/09 09:33:28;;;;;;;9.83;8.93;;;23.10;80.00;;;;;;5015428;28;20229;-74
2023/05/09 09:35:56;;;;;;;10.13;9.17;;;23.30;80.20;;;;;;5050804;28;20228;-74
2023/05/09 09:38:24;;;;;;;8.70;7.90;;;23.40;80.20;;;;;;5051323;28;20236;-74
2023/05/09 09:40:55;;;;;;;8.63;7.93;;;23.50;80.40;;;;;;5050952;28;20822;-74
2023/05/09 09:43:28;;;;;;;10.40;9.47;;;23.60;80.40;;;;;;5051069;28;20224;-74
2023/05/09 09:45:55;;;;;;;11.07;9.97;;;23.70;80.30;;;;;;5050845;28;20300;-74
2023/05/09 09:48:25;;;;;;;10.50;9.23;;;23.80;80.60;;;;;;5051163;28;20598;-75
2023/05/09 09:50:55;;;;;;;12.00;10.70;;;23.80;79.50;;;;;;5050891;28;20206;-74
2023/05/09 09:53:22;;;;;;;11.23;10.23;;;23.70;79.40;;;;;;5050672;28;20233;-74
2023/05/09 09:55:51;;;;;;;12.57;11.47;;;23.70;80.10;;;;;;5048850;28;20235;-75
2023/05/09 09:58:20;;;;;;;12.20;11.20;;;23.60;79.40;;;;;;5050785;28;20296;-75
2023/05/09 10:00:49;;;;;;;10.03;9.10;;;23.50;80.10;;;;;;5051095;28;20312;-74
2023/05/09 10:03:16;;;;;;;9.70;8.80;;;23.50;80.00;;;;;;5053524;28;20910;-74
2023/05/09 10:05:44;;;;;;;10.53;9.63;;;23.50;80.70;;;;;;5052595;28;20234;-74
2023/05/09 10:08:11;;;;;;;9.87;8.87;;;23.60;80.10;;;;;;5048911;28;21194;-74
2023/05/09 10:10:38;;;;;;;7.90;7.20;;;23.60;81.30;;;;;;5054676;28;20237;-74
2023/05/09 10:13:08;;;;;;;6.27;5.77;;;23.70;80.30;;;;;;5054120;28;20320;-75
2023/05/09 10:15:36;;;;;;;5.20;4.70;;;23.80;78.60;;;;;;5054167;28;20237;-74
2023/05/09 10:18:04;;;;;;;5.67;4.50;;;23.80;78.20;;;;;;5054522;28;20209;-74
2023/05/09 10:20:31;;;;;;;5.20;4.77;;;23.80;76.90;;;;;;5054450;28;20217;-75
2023/05/09 10:23:02;;;;;;;5.50;5.00;;;23.80;77.60;;;;;;5054792;28;20202;-74
2023/05/09 10:25:38;;;;;;;6.30;5.80;;;23.80;78.10;;;;;;5053655;28;20240;-74
2023/05/09 10:28:11;;;;;;;5.60;4.93;;;23.80;78.10;;;;;;5054172;28;20204;-75
2023/05/09 10:30:47;;;;;;;4.10;3.70;;;23.90;77.60;;;;;;5054558;28;20209;-75
2023/05/09 10:33:16;;;;;;;3.83;3.53;;;23.90;76.70;;;;;;5054701;28;20250;-76
2023/05/09 10:35:46;;;;;;;4.00;3.70;;;23.90;76.60;;;;;;5053848;28;20206;-76
2023/05/09 10:38:16;;;;;;;4.90;4.40;;;23.90;77.50;;;;;;5054361;28;20575;-75
2023/05/09 10:40:46;;;;;;;4.50;4.17;;;23.80;77.50;;;;;;5054177;28;20212;-75
2023/05/09 10:43:14;;;;;;;4.50;4.10;;;23.80;77.20;;;;;;5054305;28;20284;-76
2023/05/09 10:45:43;;;;;;;3.83;3.53;;;23.70;77.90;;;;;;5054354;28;20300;-75
2023/05/09 10:48:11;;;;;;;4.23;3.83;;;23.60;76.70;;;;;;5054137;28;20256;-75
2023/05/09 10:50:39;;;;;;;4.60;4.20;;;23.50;76.80;;;;;;5054093;28;20594;-75
2023/05/09 10:53:13;;;;;;;5.33;4.93;;;23.50;78.10;;;;;;5054082;28;20217;-75
2023/05/09 10:55:50;;;;;;;4.93;4.53;;;23.50;77.70;;;;;;5052349;28;20285;-75
2023/05/09 10:58:21;;;;;;;5.80;5.30;;;23.50;77.30;;;;;;5053981;28;20203;-76
2023/05/09 11:00:50;;;;;;;6.10;5.60;;;23.50;77.30;;;;;;5054404;28;20196;-75
2023/05/09 11:03:18;;;;;;;5.20;4.80;;;23.40;77.20;;;;;;5053819;28;20232;-74
2023/05/09 11:05:46;;;;;;;7.10;6.50;;;23.40;78.20;;;;;;5053707;28;20233;-74
2023/05/09 11:08:20;;;;;;;5.80;5.30;;;23.40;78.50;;;;;;5053896;28;20219;-73
2023/05/09 11:10:49;;;;;;;6.40;5.90;;;23.50;79.00;;;;;;5053576;28;20236;-75
2023/05/09 11:13:20;;;;;;;7.30;6.70;;;23.60;79.30;;;;;;5053683;28;20225;-75
2023/05/09 11:16:09;;;;;;;7.87;7.07;;;23.70;79.70;;;;;;5053268;28;20806;-74
2023/05/09 11:18:51;;;;;;;6.30;5.70;;;23.70;78.60;;;;;;5053656;28;20291;-75
2023/05/09 11:21:20;;;;;;;5.90;5.40;;;23.70;79.20;;;;;;5053778;28;20201;-74
2023/05/09 11:23:48;;;;;;;7.20;6.60;;;23.80;79.40;;;;;;5053472;28;20216;-74
2023/05/09 11:26:17;;;;;;;6.43;5.83;;;23.80;79.30;;;;;;5053474;28;20201;-74
2023/05/09 11:28:52;;;;;;;6.10;5.50;;;23.80;79.50;;;;;;5053511;28;20263;-74
2023/05/09 11:31:19;;;;;;;7.00;6.40;;;23.90;79.30;;;;;;5053387;28;20205;-74
2023/05/09 11:33:53;;;;;;;6.60;6.00;;;23.90;78.30;;;;;;5053644;28;20279;-74
2023/05/09 11:36:24;;;;;;;6.40;5.90;;;23.90;78.20;;;;;;5053548;28;20558;-74
2023/05/09 11:39:01;;;;;;;6.60;6.00;;;24.00;78.50;;;;;;5053163;28;20205;-74
2023/05/09 11:41:30;;;;;;;7.17;6.47;;;24.00;78.50;;;;;;5053410;28;20256;-75
2023/05/09 11:43:58;;;;;;;7.27;6.67;;;23.90;77.90;;;;;;5053084;28;20207;-74
2023/05/09 11:46:25;;;;;;;6.90;6.30;;;24.00;78.30;;;;;;5053152;28;20239;-74
2023/05/09 11:48:53;;;;;;;7.10;6.40;;;24.00;77.90;;;;;;5053177;28;20227;-74
2023/05/09 11:51:20;;;;;;;7.27;6.67;;;23.90;77.00;;;;;;5053194;28;20206;-74
2023/05/09 11:53:52;;;;;;;5.73;5.07;;;23.90;77.50;;;;;;5052757;28;20238;-74
2023/05/09 11:56:21;;;;;;;5.33;4.93;;;24.00;77.70;;;;;;5052727;28;20233;-75
2023/05/09 11:58:54;;;;;;;6.53;5.93;;;24.00;78.20;;;;;;5053015;28;20209;-75
2023/05/09 12:01:22;;;;;;;6.23;5.73;;;24.10;78.20;;;;;;5052808;28;20719;-74
2023/05/09 12:03:50;;;;;;;5.53;5.00;;;24.10;78.00;;;;;;5052913;28;20208;-74
2023/05/09 12:06:18;;;;;;;5.07;4.67;;;24.10;78.40;;;;;;5052550;28;20205;-74
2023/05/09 12:08:46;;;;;;;5.00;4.60;;;24.20;78.70;;;;;;5052113;28;20850;-75
2023/05/09 12:11:13;;;;;;;5.20;4.80;;;24.20;77.90;;;;;;5053013;28;20216;-75
2023/05/09 12:13:47;;;;;;;5.97;5.47;;;24.30;77.50;;;;;;5052810;28;20229;-75
2023/05/09 12:16:17;;;;;;;4.93;4.53;;;24.30;78.10;;;;;;5052350;28;20220;-74
2023/05/09 12:18:47;;;;;;;6.07;5.57;;;24.30;78.00;;;;;;5052199;28;20296;-75
2023/05/09 12:21:15;;;;;;;5.97;5.47;;;24.40;78.30;;;;;;5052709;28;20201;-74
2023/05/09 12:23:43;;;;;;;6.40;5.80;;;24.40;77.60;;;;;;5017184;28;20279;-74
2023/05/09 12:26:11;;;;;;;5.83;5.33;;;24.40;78.90;;;;;;5052307;28;20232;-74
2023/05/09 12:28:38;;;;;;;5.50;4.77;;;24.40;78.90;;;;;;5052430;28;20241;-74
2023/05/09 12:31:07;;;;;;;6.10;5.60;;;24.40;78.30;;;;;;5052136;28;20206;-75
2023/05/09 12:33:38;;;;;;;6.83;6.23;;;24.50;77.70;;;;;;5052226;28;20584;-75
2023/05/09 12:36:08;;;;;;;6.23;5.63;;;24.50;77.40;;;;;;5051443;28;20209;-75
2023/05/09 12:38:35;;;;;;;5.70;5.30;;;24.40;77.00;;;;;;5017954;28;20403;-75
2023/05/09 12:41:03;;;;;;;6.53;5.43;;;24.40;76.60;;;;;;5052045;28;20231;-75
2023/05/09 12:43:33;;;;;;;6.00;5.50;;;24.30;77.50;;;;;;5052286;28;20550;-74
2023/05/09 13:20:46;;;;;;;6.10;5.60;;;24.00;78.90;;;;;;5052337;28;20683;-74
2023/05/09 13:23:13;;;;;;;6.47;5.87;;;24.00;79.20;;;;;;5051028;28;20332;-74